Time;durP1;ratioP1;P1;durP2;ratioP2;P2;SDS_P1;SDS_P2;PMS_P1;PMS_P2;Temp;Humidity;BMP_temperature;BMP_pressure;BME280_temperature;BME280_humidity;BME280_pressure;Samples;Min_cycle;Max_cycle;Signal;HPM_P1;HPM_P2
2022/05/19 00:01:51;;;;;;;6.82;4.32;;;;;;;29.41;44.42;99632.75;5060767;28;20432;-81
2022/05/19 00:04:17;;;;;;;5.80;4.15;;;;;;;29.39;44.27;99629.34;5079099;28;20029;-85
2022/05/19 00:06:42;;;;;;;6.25;3.90;;;;;;;29.39;44.26;99645.47;5060564;28;20036;-83
2022/05/19 00:09:08;;;;;;;6.20;4.30;;;;;;;29.38;44.10;99627.66;5081034;28;20035;-82
2022/05/19 00:11:34;;;;;;;7.57;4.30;;;;;;;29.38;43.89;99627.66;5080276;28;20020;-81
2022/05/19 00:14:01;;;;;;;6.53;4.35;;;;;;;29.37;44.33;99620.59;5080167;28;20035;-82
2022/05/19 00:16:27;;;;;;;8.15;4.60;;;;;;;29.36;44.16;99626.97;5061119;28;20025;-83
2022/05/19 00:18:53;;;;;;;7.18;4.32;;;;;;;29.36;44.31;99618.88;5078089;28;20021;-81
2022/05/19 00:21:19;;;;;;;5.95;4.18;;;;;;;29.37;44.49;99646.59;5078026;28;20458;-81
2022/05/19 00:23:45;;;;;;;5.72;3.88;;;;;;;29.34;44.46;99642.34;5078106;28;20156;-81
2022/05/19 00:26:10;;;;;;;5.45;4.10;;;;;;;29.33;44.46;99643.34;5077974;28;20020;-83
2022/05/19 00:28:36;;;;;;;8.43;4.10;;;;;;;29.33;44.52;99651.41;5078120;28;20024;-83
2022/05/19 00:31:02;;;;;;;6.60;4.45;;;;;;;29.32;44.55;99655.09;5060742;28;20099;-81
2022/05/19 00:33:28;;;;;;;6.40;4.53;;;;;;;29.30;44.67;99657.09;5061051;28;20020;-84
2022/05/19 00:35:53;;;;;;;7.80;4.43;;;;;;;29.29;44.67;99655.41;5063099;28;20104;-83
2022/05/19 00:38:19;;;;;;;6.05;4.80;;;;;;;29.29;44.46;99650.88;5064121;28;20024;-82
2022/05/19 00:40:51;;;;;;;6.13;4.50;;;;;;;29.28;44.66;99637.56;5062985;28;20054;-85
2022/05/19 00:43:27;;;;;;;7.50;4.80;;;;;;;29.28;44.96;99645.63;5079625;28;20028;-81
2022/05/19 00:46:03;;;;;;;6.18;4.45;;;;;;;29.27;44.87;99652.00;5059596;28;20028;-83
2022/05/19 00:48:57;;;;;;;5.38;4.10;;;;;;;29.26;44.85;99653.84;5059512;28;20048;-81
2022/05/19 00:51:42;;;;;;;7.00;4.13;;;;;;;29.26;44.68;99636.88;5076635;28;20481;-81
2022/05/19 00:54:12;;;;;;;5.97;4.13;;;;;;;29.25;44.68;99632.50;5059202;28;20039;-83
2022/05/19 00:56:54;;;;;;;7.35;4.22;;;;;;;29.23;44.49;99616.50;5076891;28;20385;-83
2022/05/19 00:59:29;;;;;;;6.03;4.22;;;;;;;29.23;44.86;99615.69;5059249;28;20017;-82
2022/05/19 01:01:55;;;;;;;7.63;4.53;;;;;;;29.20;45.01;99608.75;5076461;28;20028;-81
2022/05/19 01:04:49;;;;;;;6.15;4.15;;;;;;;29.19;45.05;99624.00;5077011;28;20016;-81
2022/05/19 01:07:19;;;;;;;6.93;4.75;;;;;;;29.18;44.97;99625.00;5059224;28;20472;-83
2022/05/19 01:09:46;;;;;;;6.05;4.40;;;;;;;29.18;44.97;99626.84;5059789;28;20031;-81
2022/05/19 01:12:11;;;;;;;6.10;4.63;;;;;;;29.18;44.91;99640.28;5077142;28;20024;-81
2022/05/19 01:14:37;;;;;;;6.22;4.38;;;;;;;29.16;45.12;99648.50;5059206;28;20115;-81
2022/05/19 01:17:06;;;;;;;6.38;4.43;;;;;;;29.15;45.19;99638.72;5059458;28;20048;-82
2022/05/19 01:19:38;;;;;;;6.03;4.03;;;;;;;29.13;45.11;99635.34;5060888;28;20031;-83
2022/05/19 01:22:26;;;;;;;6.05;4.38;;;;;;;29.13;45.17;99629.97;5064435;28;20111;-82
2022/05/19 01:25:20;;;;;;;7.28;4.53;;;;;;;29.11;45.05;99629.28;5059260;28;20020;-82
2022/05/19 01:27:45;;;;;;;6.80;4.30;;;;;;;29.11;44.95;99625.72;5036158;28;20098;-82
2022/05/19 01:30:12;;;;;;;7.80;4.82;;;;;;;29.09;45.12;99617.81;5058980;28;20388;-81
2022/05/19 01:32:38;;;;;;;7.97;5.05;;;;;;;29.08;45.09;99616.09;5058907;28;20089;-82
2022/05/19 01:35:04;;;;;;;8.10;4.95;;;;;;;29.07;45.14;99623.34;5058730;28;20021;-81
2022/05/19 01:37:30;;;;;;;7.80;4.65;;;;;;;29.08;45.30;99640.28;5058716;28;20031;-80
2022/05/19 01:40:32;;;;;;;7.45;4.53;;;;;;;29.05;45.56;99638.72;5076478;28;20024;-81
2022/05/19 01:43:10;;;;;;;7.93;5.20;;;;;;;29.04;45.57;99636.19;5058576;28;20536;-82
2022/05/19 01:46:11;;;;;;;7.00;5.05;;;;;;;29.02;45.52;99622.91;5058586;28;20366;-85
2022/05/19 01:48:58;;;;;;;7.32;5.30;;;;;;;29.02;45.45;99611.31;5058366;28;20039;-83
2022/05/19 01:51:38;;;;;;;7.10;5.15;;;;;;;29.01;45.24;99602.38;5076201;28;20042;-81
2022/05/19 01:54:10;;;;;;;7.90;5.40;;;;;;;28.99;45.81;99595.50;5058209;28;20048;-83
2022/05/19 01:56:39;;;;;;;9.10;5.57;;;;;;;28.99;45.72;99595.50;5076072;28;20044;-81
2022/05/19 01:59:30;;;;;;;9.82;6.07;;;;;;;28.97;45.60;99609.06;5058539;28;20411;-81
2022/05/19 02:02:31;;;;;;;8.30;5.38;;;;;;;28.94;45.96;99630.81;5057944;28;20024;-81
2022/05/19 02:05:26;;;;;;;8.05;5.90;;;;;;;28.92;45.72;99647.06;5058133;28;20386;-83
2022/05/19 02:07:56;;;;;;;8.40;5.63;;;;;;;28.92;45.67;99649.75;5040243;28;20032;-81
2022/05/19 02:10:29;;;;;;;8.55;5.75;;;;;;;28.90;45.58;99635.63;5058033;28;20424;-81
2022/05/19 02:12:57;;;;;;;7.85;5.47;;;;;;;28.88;45.77;99632.25;5075529;28;20017;-82
2022/05/19 02:15:26;;;;;;;9.88;6.25;;;;;;;28.88;45.69;99643.00;5058085;28;20028;-81
2022/05/19 02:17:53;;;;;;;9.15;6.05;;;;;;;28.86;46.08;99639.59;5058492;28;20056;-81
2022/05/19 02:20:22;;;;;;;8.25;6.30;;;;;;;28.84;45.78;99633.47;5058139;28;20113;-81
2022/05/19 02:22:48;;;;;;;8.23;5.45;;;;;;;28.84;45.95;99635.31;5075948;28;20032;-81
2022/05/19 02:25:23;;;;;;;8.57;5.28;;;;;;;28.83;46.07;99623.72;5058087;28;20031;-80
2022/05/19 02:28:20;;;;;;;8.27;6.18;;;;;;;28.84;45.75;99632.63;5057845;28;20362;-81
2022/05/19 02:30:45;;;;;;;9.00;6.10;;;;;;;28.80;45.91;99630.25;5057685;28;20377;-82
2022/05/19 02:33:15;;;;;;;8.98;5.75;;;;;;;28.80;46.01;99624.00;5058002;28;20119;-82
2022/05/19 02:35:41;;;;;;;8.77;6.07;;;;;;;28.78;46.01;99621.47;5076110;28;20108;-82
2022/05/19 02:38:07;;;;;;;7.53;5.75;;;;;;;28.76;45.65;99612.69;5060793;28;20047;-83
2022/05/19 02:40:35;;;;;;;9.93;6.30;;;;;;;28.77;45.94;99608.19;5059238;28;20028;-83
2022/05/19 02:43:02;;;;;;;8.68;6.43;;;;;;;28.75;46.31;99604.78;5076261;28;20116;-83
2022/05/19 02:45:28;;;;;;;7.97;5.97;;;;;;;28.73;45.79;99612.13;5075739;28;20139;-83
2022/05/19 02:47:54;;;;;;;9.48;6.38;;;;;;;28.72;46.21;99618.50;5058165;28;20366;-84
2022/05/19 02:50:21;;;;;;;9.07;6.20;;;;;;;28.69;46.03;99619.63;5058993;28;20059;-82
2022/05/19 02:52:47;;;;;;;10.32;6.13;;;;;;;28.71;46.20;99623.00;5059590;28;20032;-81
2022/05/19 02:55:14;;;;;;;9.18;5.90;;;;;;;28.70;45.99;99615.94;5058507;28;20033;-82
2022/05/19 02:57:40;;;;;;;8.10;6.10;;;;;;;28.68;46.40;99610.72;5075777;28;20132;-81
2022/05/19 03:00:09;;;;;;;8.63;6.28;;;;;;;28.65;46.33;99610.16;5075749;28;20032;-81
2022/05/19 03:02:35;;;;;;;10.80;6.32;;;;;;;28.63;46.07;99609.47;5074928;28;20535;-81
2022/05/19 03:05:01;;;;;;;8.07;6.13;;;;;;;28.64;46.14;99622.75;5075004;28;20024;-81
2022/05/19 03:07:26;;;;;;;8.32;5.85;;;;;;;28.62;46.17;99605.91;5057015;28;20039;-82
2022/05/19 03:09:52;;;;;;;7.80;5.97;;;;;;;28.59;46.13;99616.94;5057334;28;20146;-81
2022/05/19 03:12:18;;;;;;;9.55;6.43;;;;;;;28.59;46.16;99613.41;5057128;28;20028;-82
2022/05/19 03:14:44;;;;;;;8.45;5.75;;;;;;;28.58;46.02;99614.41;5057061;28;20032;-83
2022/05/19 03:17:10;;;;;;;8.20;6.07;;;;;;;28.57;46.21;99613.53;5057142;28;20415;-80
2022/05/19 03:19:37;;;;;;;9.38;6.07;;;;;;;28.56;45.73;99611.84;5057077;28;20028;-82
2022/05/19 03:22:04;;;;;;;8.70;5.90;;;;;;;28.55;45.69;99615.53;5056907;28;20028;-80
2022/05/19 03:24:30;;;;;;;7.63;6.07;;;;;;;28.53;46.00;99622.88;5056448;28;20454;-82
2022/05/19 03:26:55;;;;;;;9.90;6.35;;;;;;;28.51;46.08;99614.97;5057259;28;20093;-81
2022/05/19 03:29:21;;;;;;;8.20;5.80;;;;;;;28.51;46.04;99622.16;5056942;28;20024;-82
2022/05/19 03:31:46;;;;;;;8.70;5.88;;;;;;;28.51;45.97;99619.47;5056967;28;20033;-81
2022/05/19 03:34:12;;;;;;;10.45;6.13;;;;;;;28.48;45.66;99609.84;5056824;28;20315;-82
2022/05/19 03:36:37;;;;;;;8.00;5.63;;;;;;;28.46;46.06;99611.84;5057038;28;20024;-82
2022/05/19 03:39:03;;;;;;;9.95;5.97;;;;;;;28.44;45.67;99615.66;5057350;28;20032;-83
2022/05/19 03:41:29;;;;;;;7.00;5.43;;;;;;;28.45;45.80;99609.28;5076974;28;20051;-83
2022/05/19 03:43:54;;;;;;;7.50;5.15;;;;;;;28.43;46.13;99605.91;5056871;28;20478;-80
2022/05/19 03:46:20;;;;;;;7.80;5.53;;;;;;;28.41;45.63;99606.91;5056751;28;20140;-81
2022/05/19 03:48:46;;;;;;;7.22;5.35;;;;;;;28.39;45.51;99600.81;5056776;28;20038;-80
2022/05/19 03:51:22;;;;;;;9.02;5.65;;;;;;;28.37;45.71;99586.69;5056635;28;20079;-81
2022/05/19 03:53:48;;;;;;;8.93;5.60;;;;;;;28.35;45.67;99594.03;5056355;28;20043;-80
2022/05/19 03:56:13;;;;;;;7.50;5.50;;;;;;;28.35;45.55;99594.03;5074239;28;20064;-82
2022/05/19 03:58:39;;;;;;;9.43;6.18;;;;;;;28.33;45.96;99601.34;5056881;28;20124;-81
2022/05/19 04:01:05;;;;;;;7.85;5.60;;;;;;;28.32;45.45;99606.88;5057425;28;20024;-81
2022/05/19 04:03:31;;;;;;;7.57;5.50;;;;;;;28.30;45.57;99612.38;5078670;28;20029;-80
2022/05/19 04:05:57;;;;;;;6.10;4.95;;;;;;;28.29;45.41;99618.75;5076219;28;20028;-80
2022/05/19 04:08:22;;;;;;;8.45;5.63;;;;;;;28.28;45.66;99619.75;5057693;28;20056;-82
2022/05/19 04:10:48;;;;;;;7.43;5.32;;;;;;;28.26;45.73;99619.88;5074478;28;20048;-80
2022/05/19 04:13:14;;;;;;;7.80;5.43;;;;;;;28.26;45.78;99627.06;5056674;28;20036;-82
2022/05/19 04:15:40;;;;;;;8.02;5.40;;;;;;;28.24;45.79;99640.59;5056342;28;20392;-80
2022/05/19 04:18:06;;;;;;;7.70;5.57;;;;;;;28.23;45.48;99632.72;5074140;28;20028;-80
2022/05/19 04:20:32;;;;;;;7.32;5.25;;;;;;;28.22;45.61;99621.13;5074116;28;20370;-80
2022/05/19 04:22:59;;;;;;;8.65;5.68;;;;;;;28.21;45.75;99611.34;5056440;28;20032;-81
2022/05/19 04:25:25;;;;;;;8.25;5.25;;;;;;;28.20;45.56;99612.34;5056492;28;20033;-81
2022/05/19 04:27:51;;;;;;;6.65;5.30;;;;;;;28.20;45.87;99632.94;5076836;28;20033;-82
2022/05/19 04:30:17;;;;;;;7.03;5.30;;;;;;;28.19;45.59;99641.97;5057479;28;20044;-80
2022/05/19 04:32:43;;;;;;;7.97;5.68;;;;;;;28.18;45.74;99656.38;5056382;28;20058;-82
2022/05/19 04:35:10;;;;;;;8.02;5.25;;;;;;;28.17;45.79;99668.09;5075390;28;20028;-80
2022/05/19 04:37:36;;;;;;;8.07;5.38;;;;;;;28.17;45.50;99654.69;5077746;28;20039;-80
2022/05/19 04:40:03;;;;;;;7.38;5.40;;;;;;;28.17;45.57;99665.41;5077558;28;20024;-80
2022/05/19 04:42:28;;;;;;;7.53;5.90;;;;;;;28.14;45.71;99672.75;5059610;28;20028;-82
2022/05/19 04:44:54;;;;;;;7.25;5.22;;;;;;;28.13;45.36;99687.13;5059903;28;20039;-80
2022/05/19 04:47:20;;;;;;;6.90;4.90;;;;;;;28.13;45.64;99687.13;5060484;28;20035;-81
2022/05/19 04:49:45;;;;;;;7.78;5.65;;;;;;;28.14;45.71;99686.16;5059679;28;20373;-81
2022/05/19 04:52:12;;;;;;;6.97;5.38;;;;;;;28.13;45.30;99676.41;5060106;28;20028;-80
2022/05/19 04:54:37;;;;;;;7.70;5.72;;;;;;;28.12;45.67;99685.44;5078412;28;20032;-80
2022/05/19 04:57:04;;;;;;;7.80;5.50;;;;;;;28.09;45.51;99691.06;5077778;28;20136;-80
2022/05/19 04:59:31;;;;;;;7.32;5.20;;;;;;;28.10;45.57;99697.28;5078384;28;20024;-81
2022/05/19 05:01:57;;;;;;;7.53;5.40;;;;;;;28.09;45.63;99691.06;5060191;28;20417;-81
2022/05/19 05:04:26;;;;;;;7.10;5.15;;;;;;;28.07;45.68;99682.31;5060511;28;20025;-82
2022/05/19 05:06:52;;;;;;;7.88;5.28;;;;;;;28.07;45.77;99689.50;5060630;28;20021;-84
2022/05/19 05:09:17;;;;;;;6.50;5.28;;;;;;;28.06;45.35;99690.50;5060838;28;20127;-83
2022/05/19 05:11:43;;;;;;;8.10;5.80;;;;;;;28.05;45.65;99689.66;5079301;28;20422;-81
2022/05/19 05:14:09;;;;;;;7.53;5.05;;;;;;;28.05;45.63;99695.03;5063104;28;20120;-82
2022/05/19 05:16:35;;;;;;;7.18;5.38;;;;;;;28.04;45.41;99689.78;5060912;28;20040;-80
2022/05/19 05:19:00;;;;;;;7.72;4.93;;;;;;;28.04;45.58;99687.97;5077067;28;20174;-80
2022/05/19 05:21:26;;;;;;;6.50;4.88;;;;;;;28.03;45.67;99694.28;5059385;28;20032;-80
2022/05/19 05:23:51;;;;;;;6.78;5.00;;;;;;;28.03;45.60;99699.66;5077505;28;20020;-80
2022/05/19 05:26:17;;;;;;;7.25;4.90;;;;;;;28.01;45.47;99709.69;5059182;28;20051;-80
2022/05/19 05:28:43;;;;;;;7.18;4.93;;;;;;;28.01;45.62;99709.69;5059360;28;20051;-81
2022/05/19 05:31:08;;;;;;;7.78;4.80;;;;;;;28.02;45.58;99716.72;5061957;28;20024;-81
2022/05/19 05:33:34;;;;;;;5.88;4.78;;;;;;;28.01;45.46;99720.41;5060773;28;20163;-81
2022/05/19 05:35:59;;;;;;;8.75;5.80;;;;;;;28.02;45.55;99732.81;5080288;28;20028;-79
2022/05/19 05:38:25;;;;;;;6.88;5.15;;;;;;;28.00;45.31;99721.41;5065453;28;20028;-80
2022/05/19 05:40:51;;;;;;;7.63;5.07;;;;;;;27.99;45.30;99722.38;5079209;28;20099;-80
2022/05/19 05:43:19;;;;;;;9.48;5.97;;;;;;;27.98;45.39;99717.97;5076971;28;20025;-81
2022/05/19 05:45:46;;;;;;;7.68;5.35;;;;;;;27.98;45.76;99731.38;5080605;28;20081;-82
2022/05/19 05:48:12;;;;;;;7.90;5.05;;;;;;;27.97;45.78;99722.50;5075864;28;20024;-80
2022/05/19 05:50:38;;;;;;;6.88;4.80;;;;;;;27.97;45.76;99724.31;5058664;28;20040;-80
2022/05/19 05:53:05;;;;;;;10.13;5.45;;;;;;;27.97;45.82;99735.06;5058653;28;20038;-80
2022/05/19 05:55:32;;;;;;;7.90;4.88;;;;;;;27.97;45.46;99730.56;5076284;28;20029;-80
2022/05/19 05:57:58;;;;;;;8.00;4.85;;;;;;;27.96;45.38;99742.28;5079236;28;20163;-82
2022/05/19 06:00:24;;;;;;;6.82;5.30;;;;;;;27.98;45.62;99747.47;5061081;28;20059;-82
2022/05/19 06:02:50;;;;;;;7.10;4.95;;;;;;;27.98;45.54;99747.47;5059527;28;20126;-80
2022/05/19 06:05:16;;;;;;;5.38;4.75;;;;;;;27.99;45.56;99749.19;5058410;28;20545;-83
2022/05/19 06:07:42;;;;;;;8.15;5.13;;;;;;;27.99;45.73;99750.03;5076004;28;20035;-80
2022/05/19 06:10:09;;;;;;;7.30;5.60;;;;;;;28.01;45.56;99747.22;5058155;28;20025;-80
2022/05/19 06:12:35;;;;;;;8.40;5.22;;;;;;;28.01;45.54;99750.78;5075992;28;20107;-82
2022/05/19 06:15:01;;;;;;;6.82;4.95;;;;;;;28.00;45.91;99757.09;5058233;28;20116;-80
2022/05/19 06:17:26;;;;;;;7.35;5.07;;;;;;;28.01;45.90;99764.19;5075838;28;20055;-80
2022/05/19 06:19:53;;;;;;;6.18;4.65;;;;;;;27.99;45.62;99762.63;5057945;28;20069;-80
2022/05/19 06:22:22;;;;;;;6.60;5.03;;;;;;;28.03;45.66;99765.88;5058102;28;20024;-81
2022/05/19 06:24:49;;;;;;;8.13;4.95;;;;;;;28.01;45.60;99750.78;5075858;28;20439;-81
2022/05/19 06:27:15;;;;;;;8.07;5.30;;;;;;;28.01;45.71;99764.19;5057850;28;20465;-80
2022/05/19 06:29:40;;;;;;;6.65;4.88;;;;;;;28.02;45.77;99756.97;5057854;28;20028;-81
2022/05/19 06:32:06;;;;;;;7.75;5.10;;;;;;;28.05;45.94;99759.41;5057831;28;20035;-82
2022/05/19 06:34:32;;;;;;;7.25;5.28;;;;;;;28.04;46.03;99757.69;5076674;28;20111;-81
2022/05/19 06:36:58;;;;;;;7.57;5.22;;;;;;;28.06;45.95;99760.22;5075509;28;20035;-81
2022/05/19 06:39:24;;;;;;;8.95;4.85;;;;;;;28.05;45.87;99751.34;5057696;28;20028;-80
2022/05/19 06:42:01;;;;;;;7.35;4.85;;;;;;;28.04;45.92;99752.34;5057701;28;20055;-82
2022/05/19 06:44:29;;;;;;;8.98;5.53;;;;;;;28.05;45.70;99754.03;5059312;28;20058;-81
2022/05/19 06:46:56;;;;;;;7.55;4.90;;;;;;;28.06;45.82;99750.38;5057496;28;20105;-81
2022/05/19 06:49:21;;;;;;;9.27;5.05;;;;;;;28.07;45.92;99754.75;5076932;28;20032;-83
2022/05/19 06:51:47;;;;;;;8.80;5.35;;;;;;;28.07;45.76;99757.41;5074847;28;20043;-82
2022/05/19 06:54:13;;;;;;;8.18;5.00;;;;;;;28.10;45.74;99753.63;5057191;28;20039;-81
2022/05/19 06:56:39;;;;;;;6.47;4.82;;;;;;;28.10;45.58;99740.22;5057258;28;20048;-82
2022/05/19 06:59:04;;;;;;;7.57;4.97;;;;;;;28.11;45.74;99747.28;5074252;28;20028;-83
2022/05/19 07:01:31;;;;;;;8.43;5.30;;;;;;;28.11;45.74;99748.13;5074981;28;20029;-81
2022/05/19 07:03:57;;;;;;;7.97;5.10;;;;;;;28.12;45.70;99749.81;5057761;28;20027;-80
2022/05/19 07:06:23;;;;;;;9.63;5.45;;;;;;;28.13;45.54;99751.53;5058315;28;20043;-80
2022/05/19 07:08:49;;;;;;;8.60;5.07;;;;;;;28.13;45.68;99748.84;5057463;28;20028;-80
2022/05/19 07:11:26;;;;;;;8.73;5.20;;;;;;;28.13;45.74;99746.16;5075273;28;20039;-80
2022/05/19 07:13:56;;;;;;;8.13;4.95;;;;;;;28.14;45.83;99763.94;5057727;28;20028;-82
2022/05/19 07:16:22;;;;;;;8.02;4.82;;;;;;;28.18;45.71;99748.44;5076085;28;20032;-80
2022/05/19 07:18:48;;;;;;;7.13;5.40;;;;;;;28.17;45.57;99765.50;5057968;28;20028;-80
2022/05/19 07:21:16;;;;;;;8.75;4.90;;;;;;;28.20;45.43;99762.56;5059104;28;20028;-80
2022/05/19 07:23:42;;;;;;;9.77;4.88;;;;;;;28.18;45.50;99767.22;5078903;28;20025;-81
2022/05/19 07:26:07;;;;;;;8.60;5.10;;;;;;;28.20;45.71;99772.44;5059687;28;20150;-82
2022/05/19 07:28:33;;;;;;;7.38;5.28;;;;;;;28.20;45.67;99767.06;5076175;28;20028;-81
2022/05/19 07:30:59;;;;;;;8.57;5.20;;;;;;;28.22;45.31;99759.75;5077205;28;20458;-83
2022/05/19 07:33:28;;;;;;;8.48;4.82;;;;;;;28.22;45.13;99765.13;5060034;28;20047;-81
2022/05/19 07:35:55;;;;;;;8.88;4.90;;;;;;;28.23;45.36;99766.84;5058397;28;20039;-81
2022/05/19 07:38:21;;;;;;;11.57;5.47;;;;;;;28.22;45.36;99767.81;5058619;28;20055;-83
2022/05/19 07:40:54;;;;;;;7.70;5.07;;;;;;;28.23;45.77;99756.13;5058947;28;20486;-81
2022/05/19 07:43:39;;;;;;;7.70;4.55;;;;;;;28.25;45.31;99764.88;5057002;28;20025;-82
2022/05/19 07:46:06;;;;;;;6.97;4.80;;;;;;;28.26;45.53;99763.88;5074660;28;20021;-81
2022/05/19 07:48:32;;;;;;;8.90;5.00;;;;;;;28.27;45.25;99762.91;5056939;28;20126;-80
2022/05/19 07:50:58;;;;;;;6.63;4.35;;;;;;;28.28;45.12;99764.63;5056725;28;20377;-80
2022/05/19 07:53:25;;;;;;;7.72;4.68;;;;;;;28.28;45.29;99770.81;5074358;28;20020;-80
2022/05/19 07:55:50;;;;;;;8.98;4.93;;;;;;;28.30;45.25;99759.09;5056304;28;20040;-80
2022/05/19 07:58:16;;;;;;;9.07;5.32;;;;;;;28.32;45.43;99760.66;5074623;28;20033;-80
2022/05/19 08:00:42;;;;;;;8.70;4.57;;;;;;;28.33;45.19;99745.44;5056821;28;20071;-82
2022/05/19 08:03:07;;;;;;;9.90;5.13;;;;;;;28.35;45.30;99763.09;5056754;28;20028;-81
2022/05/19 08:05:33;;;;;;;8.45;4.90;;;;;;;28.37;45.06;99746.88;5074269;28;20048;-80
2022/05/19 08:07:58;;;;;;;9.18;5.22;;;;;;;28.36;45.46;99740.63;5074928;28;20415;-81
2022/05/19 08:10:24;;;;;;;8.32;4.50;;;;;;;28.38;45.09;99749.38;5059636;28;20035;-81
2022/05/19 08:15:36;;;;;;;;;;;;;;;28.43;45.25;99750.81;5080490;28;20035;-81
2022/05/19 08:18:09;;;;;;;5.63;4.30;;;;;;;28.43;45.07;99750.81;5060497;28;19912;-80
2022/05/19 08:20:36;;;;;;;9.73;4.78;;;;;;;28.44;45.27;99753.38;5078351;28;20028;-80
2022/05/19 08:23:01;;;;;;;10.70;4.82;;;;;;;28.46;44.87;99745.19;5060659;28;20039;-79
2022/05/19 08:25:28;;;;;;;9.07;4.80;;;;;;;28.46;45.19;99756.78;5078494;28;20370;-81
2022/05/19 08:27:56;;;;;;;9.07;4.65;;;;;;;28.48;45.19;99767.38;5061175;28;20040;-82
2022/05/19 08:30:22;;;;;;;7.82;4.43;;;;;;;28.50;45.13;99765.41;5060194;28;20067;-81
2022/05/19 08:32:48;;;;;;;8.85;5.28;;;;;;;28.49;45.13;99766.38;5077676;28;20426;-81
2022/05/19 08:35:14;;;;;;;8.95;5.30;;;;;;;28.51;44.94;99769.78;5077391;28;20067;-82
2022/05/19 08:37:39;;;;;;;12.32;5.25;;;;;;;28.53;45.14;99767.81;5059997;28;20488;-80
2022/05/19 08:40:06;;;;;;;7.15;4.65;;;;;;;28.54;44.89;99769.50;5060462;28;20025;-79
2022/05/19 08:42:37;;;;;;;7.70;5.00;;;;;;;28.55;45.04;99765.84;5077627;28;20090;-80
2022/05/19 08:45:17;;;;;;;8.07;4.68;;;;;;;28.55;44.72;99771.22;5077516;28;20454;-80
2022/05/19 08:47:45;;;;;;;7.15;4.82;;;;;;;28.56;45.02;99770.22;5059630;28;20059;-80
2022/05/19 08:50:37;;;;;;;8.07;4.68;;;;;;;28.56;44.84;99762.16;5060673;28;20369;-80
2022/05/19 08:53:02;;;;;;;8.95;4.80;;;;;;;28.57;45.10;99758.50;5077900;28;20511;-81
2022/05/19 08:55:29;;;;;;;8.05;4.38;;;;;;;28.57;44.82;99753.13;5077481;28;20024;-80
2022/05/19 08:58:09;;;;;;;7.72;4.63;;;;;;;28.57;44.80;99753.13;5076893;28;20052;-80
2022/05/19 09:00:44;;;;;;;10.07;4.75;;;;;;;28.59;44.62;99744.94;5063161;28;20028;-82
2022/05/19 09:03:41;;;;;;;8.70;4.75;;;;;;;28.60;44.90;99747.50;5078989;28;20040;-81
2022/05/19 09:07:56;;;;;;;7.78;4.65;;;;;;;28.61;44.76;99765.28;5056174;28;20055;-80
2022/05/19 09:09:37;;;;;;;8.43;5.03;;;;;;;28.63;44.88;99752.59;5079031;28;20040;-83
2022/05/19 09:12:08;;;;;;;6.95;4.53;;;;;;;28.62;44.88;99742.00;5059578;28;20033;-80
2022/05/19 09:14:35;;;;;;;8.55;4.97;;;;;;;28.64;44.80;99738.19;5077113;28;20025;-80
2022/05/19 09:17:11;;;;;;;7.03;4.80;;;;;;;28.64;44.96;99748.94;5059714;28;20024;-80
2022/05/19 09:20:11;;;;;;;6.78;4.70;;;;;;;28.66;44.63;99746.94;5059178;28;20032;-80
2022/05/19 09:22:37;;;;;;;7.32;4.22;;;;;;;28.67;44.83;99756.69;5057702;28;20040;-80
2022/05/19 09:25:13;;;;;;;9.27;4.93;;;;;;;28.69;44.72;99761.94;5059352;28;20416;-82
2022/05/19 09:27:42;;;;;;;9.35;4.63;;;;;;;28.70;44.84;99763.63;5077274;28;20082;-80
2022/05/19 09:30:16;;;;;;;9.68;4.78;;;;;;;28.72;44.98;99750.06;5059100;28;20028;-82
2022/05/19 09:32:51;;;;;;;6.70;4.55;;;;;;;28.72;44.48;99750.06;5059000;28;20070;-82
2022/05/19 09:35:34;;;;;;;8.05;4.80;;;;;;;28.73;44.63;99771.41;5059137;28;20051;-80
2022/05/19 09:38:16;;;;;;;10.02;5.40;;;;;;;28.75;44.67;99760.50;5059367;28;20043;-80
2022/05/19 09:40:46;;;;;;;9.02;5.10;;;;;;;28.74;44.50;99767.75;5077615;28;20035;-82
2022/05/19 09:43:17;;;;;;;8.57;5.07;;;;;;;28.76;44.78;99763.06;5061243;28;20031;-82
2022/05/19 09:46:04;;;;;;;8.38;4.60;;;;;;;28.78;44.87;99771.00;5061209;28;20027;-84
2022/05/19 09:48:36;;;;;;;7.47;4.70;;;;;;;28.78;44.72;99755.75;5060627;28;20029;-83
2022/05/19 09:51:08;;;;;;;8.15;4.70;;;;;;;28.79;44.78;99757.44;5079987;28;20036;-83
2022/05/19 09:53:59;;;;;;;12.48;4.72;;;;;;;28.83;44.55;99770.56;5058714;28;20094;-80
2022/05/19 09:56:35;;;;;;;10.68;5.30;;;;;;;28.83;44.46;99763.38;5048932;28;20474;-82
2022/05/19 09:59:06;;;;;;;;;;;;;;;28.87;44.79;99756.78;5058622;28;20343;-80
2022/05/19 10:01:39;;;;;;;7.22;4.15;;;;;;;28.86;44.61;99763.13;5076386;28;19908;-82
2022/05/19 10:04:19;;;;;;;7.75;4.40;;;;;;;28.88;44.67;99755.78;5076277;28;20059;-80
2022/05/19 10:06:55;;;;;;;8.55;4.50;;;;;;;28.89;44.54;99745.88;5058376;28;20474;-80
2022/05/19 10:09:31;;;;;;;7.35;4.43;;;;;;;28.90;44.83;99745.75;5059196;28;20031;-83
2022/05/19 10:12:08;;;;;;;6.13;4.50;;;;;;;28.91;44.63;99760.03;5075864;28;20028;-80
2022/05/19 10:14:35;;;;;;;10.35;4.82;;;;;;;28.92;44.64;99754.50;5058180;28;20289;-81
2022/05/19 10:17:16;;;;;;;7.85;3.92;;;;;;;28.93;44.71;99750.00;5077677;28;20024;-81
2022/05/19 10:19:44;;;;;;;7.88;4.43;;;;;;;28.93;44.66;99753.53;5077191;28;20095;-83
2022/05/19 10:22:20;;;;;;;9.77;4.47;;;;;;;28.94;44.55;99743.63;5061806;28;20024;-82
2022/05/19 10:24:57;;;;;;;11.38;4.40;;;;;;;28.96;44.40;99756.94;5057861;28;20017;-81
2022/05/19 10:31:08;;;;;;;8.02;4.60;;;;;;;28.98;44.58;99754.94;5067323;28;20078;-83
2022/05/19 10:34:01;;;;;;;9.45;4.68;;;;;;;29.00;44.59;99752.97;5075580;28;20511;-80
2022/05/19 10:36:27;;;;;;;8.98;4.65;;;;;;;29.02;44.63;99748.31;5057522;28;20126;-82
2022/05/19 10:39:25;;;;;;;8.52;3.97;;;;;;;29.03;44.29;99741.94;5057753;28;20079;-80
2022/05/19 10:42:12;;;;;;;5.93;3.83;;;;;;;29.05;44.68;99737.28;5057524;28;20055;-80
2022/05/19 10:44:56;;;;;;;8.80;3.85;;;;;;;29.07;44.59;99732.63;5057699;28;20028;-81
2022/05/19 10:47:37;;;;;;;8.10;4.57;;;;;;;29.10;44.31;99726.94;5075164;28;20029;-80
2022/05/19 10:50:25;;;;;;;7.55;3.90;;;;;;;29.11;44.49;99714.38;5075009;28;20036;-80
2022/05/19 10:53:22;;;;;;;9.23;4.00;;;;;;;29.11;44.53;99712.56;5057165;28;20070;-80
2022/05/19 10:56:06;;;;;;;6.20;3.83;;;;;;;29.13;44.24;99715.94;5056884;28;20385;-81
2022/05/19 10:59:05;;;;;;;7.00;3.70;;;;;;;29.15;44.48;99708.56;5075371;28;20040;-80
2022/05/19 11:01:31;;;;;;;7.47;4.22;;;;;;;29.15;44.33;99713.94;5057032;28;20024;-80
2022/05/19 11:04:24;;;;;;;7.20;3.90;;;;;;;29.18;44.46;99711.00;5074883;28;20020;-82
2022/05/19 11:07:18;;;;;;;7.78;4.07;;;;;;;29.20;44.40;99718.91;5057371;28;20357;-84
2022/05/19 11:10:17;;;;;;;6.10;3.60;;;;;;;29.20;44.17;99717.06;5076686;28;20035;-83
2022/05/19 11:12:57;;;;;;;7.05;3.88;;;;;;;29.20;44.53;99719.75;5077078;28;20100;-81
2022/05/19 11:15:33;;;;;;;7.15;4.30;;;;;;;29.22;44.16;99711.56;5075260;28;20025;-81
2022/05/19 11:18:23;;;;;;;6.68;3.88;;;;;;;29.26;44.60;99714.78;5056818;28;20400;-82
2022/05/19 11:21:16;;;;;;;6.78;3.75;;;;;;;29.26;44.32;99706.72;5056676;28;20388;-82
2022/05/19 11:23:51;;;;;;;6.03;4.25;;;;;;;29.28;44.13;99716.34;5075071;28;20054;-80
2022/05/19 11:26:31;;;;;;;9.70;4.53;;;;;;;29.28;44.30;99715.50;5057657;28;20024;-82
2022/05/19 11:29:06;;;;;;;6.25;4.18;;;;;;;29.29;44.06;99703.78;5068456;28;20023;-84
2022/05/19 11:31:46;;;;;;;6.87;3.87;;;;;;;29.31;44.31;99704.47;5075097;28;20024;-81
2022/05/19 11:34:45;;;;;;;5.10;3.47;;;;;;;29.31;44.48;99708.03;5056779;28;20275;-81
2022/05/19 11:37:32;;;;;;;6.10;3.63;;;;;;;29.33;44.56;99710.53;5074545;28;20035;-81
2022/05/19 11:40:15;;;;;;;7.20;3.55;;;;;;;29.36;44.46;99704.91;5075037;28;20036;-80
2022/05/19 11:42:53;;;;;;;7.72;3.92;;;;;;;29.38;44.36;99712.81;5074615;28;20090;-81
2022/05/19 11:46:08;;;;;;;10.57;3.83;;;;;;;29.38;44.46;99705.59;5058975;28;20020;-81
2022/05/19 11:57:42;;;;;;;7.37;4.20;;;;;;;29.44;44.34;99696.13;5081085;28;20059;-81
2022/05/19 12:00:13;;;;;;;7.45;4.18;;;;;;;29.44;44.41;99686.19;5061819;28;20575;-84
2022/05/19 12:02:48;;;;;;;6.95;4.03;;;;;;;29.45;44.56;99693.25;5062596;28;20031;-84
2022/05/19 12:05:29;;;;;;;9.07;4.30;;;;;;;29.50;44.42;99705.47;5062632;28;20420;-85
2022/05/19 12:07:58;;;;;;;6.60;3.40;;;;;;;29.48;44.04;99693.03;5063872;28;20028;-81
2022/05/19 12:10:31;;;;;;;7.38;4.10;;;;;;;29.50;44.04;99683.97;5061219;28;20469;-82